Time;durP1;ratioP1;P1;durP2;ratioP2;P2;SDS_P1;SDS_P2;PMS_P1;PMS_P2;Temp;Humidity;BMP_temperature;BMP_pressure;BME280_temperature;BME280_humidity;BME280_pressure;Samples;Min_cycle;Max_cycle;Signal;HPM_P1;HPM_P2
2022/01/24 00:01:49;;;;;;;29.52;15.45;;;;;;;-3.96;73.32;101532.32;1758258;81;21483;-80
2022/01/24 00:04:17;;;;;;;26.73;15.13;;;;;;;-3.98;73.40;101530.16;1757934;81;20928;-80
2022/01/24 00:06:46;;;;;;;21.60;13.40;;;;;;;-3.99;73.52;101534.42;1757940;81;21366;-79
2022/01/24 00:09:13;;;;;;;23.38;13.78;;;;;;;-3.98;73.52;101539.13;1757431;81;20900;-79
2022/01/24 00:17:07;;;;;;;23.50;13.45;;;;;;;-3.92;74.05;101535.37;1757813;81;20884;-77
2022/01/24 00:27:47;;;;;;;24.12;14.40;;;;;;;-3.93;74.25;101523.84;1789788;78;21166;-79
2022/01/24 00:30:15;;;;;;;23.62;14.55;;;;;;;-3.93;74.22;101520.00;1790010;80;20919;-79
2022/01/24 00:32:42;;;;;;;29.67;14.70;;;;;;;-3.92;74.20;101516.58;1789719;79;20892;-79
2022/01/24 00:35:10;;;;;;;25.77;14.50;;;;;;;-3.94;74.07;101519.12;1789936;80;21060;-79
2022/01/24 00:37:38;;;;;;;23.05;13.05;;;;;;;-3.97;74.16;101504.56;1789665;80;21392;-79
2022/01/24 00:40:06;;;;;;;32.55;15.83;;;;;;;-4.01;74.17;101508.34;1790821;80;21132;-79
2022/01/24 00:55:23;;;;;;;24.47;14.07;;;;;;;-4.09;74.16;101507.37;1789812;80;20914;-78
2022/01/24 00:57:50;;;;;;;26.27;13.78;;;;;;;-4.10;74.23;101506.52;1789895;80;20883;-79
2022/01/24 01:00:16;;;;;;;24.12;14.70;;;;;;;-4.11;74.27;101507.37;1790149;78;20985;-79
2022/01/24 01:02:44;;;;;;;25.57;14.98;;;;;;;-4.12;74.43;101507.34;1790001;78;20934;-78
2022/01/24 01:18:35;;;;;;;28.57;14.70;;;;;;;-4.10;74.57;101517.19;1781048;80;21148;-79
2022/01/24 01:21:09;;;;;;;24.47;15.18;;;;;;;-4.10;74.69;101516.76;1780847;80;20923;-79
2022/01/24 01:23:32;;;;;;;20.75;12.95;;;;;;;-4.06;74.58;101516.39;1779802;80;21014;-79
2022/01/24 01:26:03;;;;;;;22.58;14.10;;;;;;;-4.03;74.59;101508.31;1781084;79;20880;-79
2022/01/24 01:28:30;;;;;;;22.07;12.05;;;;;;;-3.98;74.59;101505.81;1780639;79;20915;-78
2022/01/24 01:31:01;;;;;;;19.65;12.55;;;;;;;-3.96;74.36;101505.42;1780833;80;21582;-78
2022/01/24 01:36:12;;;;;;;24.27;12.98;;;;;;;-3.97;74.46;101497.31;1780773;79;21345;-79
2022/01/24 01:52:56;;;;;;;18.25;11.15;;;;;;;-3.91;74.27;101465.38;1744210;82;20916;-79
2022/01/24 01:55:26;;;;;;;18.10;12.07;;;;;;;-3.91;74.29;101474.34;1716466;83;20905;-79
2022/01/24 01:57:43;;;;;;;20.43;11.70;;;;;;;-3.91;74.30;101476.91;1778526;80;21151;-81
2022/01/24 02:00:13;;;;;;;24.10;11.85;;;;;;;-3.89;74.23;101476.91;1743972;82;21753;-79
2022/01/24 02:02:40;;;;;;;18.05;11.20;;;;;;;-3.85;74.17;101483.80;1717779;82;20933;-80
2022/01/24 02:05:08;;;;;;;17.62;10.40;;;;;;;-3.85;74.17;101479.52;1783870;79;20915;-79
2022/01/24 02:07:47;;;;;;;21.02;11.55;;;;;;;-3.82;74.16;101485.98;1786452;80;20872;-79
2022/01/24 02:10:14;;;;;;;15.63;10.43;;;;;;;-3.77;74.05;101487.33;1786901;80;21384;-81
2022/01/24 02:12:41;;;;;;;18.67;12.25;;;;;;;-3.77;74.08;101466.83;1786544;80;20997;-78
2022/01/24 02:15:10;;;;;;;23.67;12.28;;;;;;;-3.79;73.95;101487.30;1786806;80;21394;-79
2022/01/24 02:17:56;;;;;;;22.75;11.85;;;;;;;-3.76;73.88;101486.08;1786494;80;20883;-78
2022/01/24 02:23:16;;;;;;;20.75;10.95;;;;;;;-3.69;73.64;101502.39;1786449;80;21063;-79
2022/01/24 02:25:27;;;;;;;18.60;10.48;;;;;;;-3.66;73.41;101503.70;1782457;79;21213;-79
2022/01/24 02:28:01;;;;;;;18.80;10.98;;;;;;;-3.64;73.27;101502.02;1786375;79;20955;-78
2022/01/24 02:33:05;;;;;;;15.63;9.35;;;;;;;-3.61;72.94;101503.33;1786474;80;20915;-80
2022/01/24 02:35:32;;;;;;;16.67;8.88;;;;;;;-3.59;72.82;101508.05;1786687;80;21810;-79
2022/01/24 02:38:02;;;;;;;23.30;11.08;;;;;;;-3.55;72.63;101516.66;1786399;79;20968;-81
2022/01/24 02:40:27;;;;;;;16.48;10.38;;;;;;;-3.52;72.42;101509.41;1786524;80;21330;-79
2022/01/24 02:48:26;;;;;;;15.43;8.50;;;;;;;-3.47;72.38;101512.46;1786663;80;21835;-79
2022/01/24 02:53:35;;;;;;;16.97;10.10;;;;;;;-3.44;71.80;101518.92;1786678;80;20868;-79
2022/01/24 02:56:03;;;;;;;16.12;9.00;;;;;;;-3.44;71.73;101511.66;1786807;80;21112;-80
2022/01/24 02:58:30;;;;;;;13.72;8.53;;;;;;;-3.45;71.62;101519.75;1786562;80;21397;-78
2022/01/24 03:00:57;;;;;;;19.02;10.03;;;;;;;-3.46;71.62;101521.03;1787123;80;21112;-78
2022/01/24 03:03:24;;;;;;;14.30;9.58;;;;;;;-3.48;71.65;101521.01;1786518;79;20970;-78
2022/01/24 03:05:51;;;;;;;16.45;9.40;;;;;;;-3.51;71.82;101520.98;1787039;79;21254;-78
2022/01/24 03:08:21;;;;;;;17.07;10.48;;;;;;;-3.54;71.74;101520.92;1787328;80;20883;-76
2022/01/24 03:10:48;;;;;;;19.10;10.03;;;;;;;-3.51;71.78;101522.66;1788211;79;20899;-77
2022/01/24 03:15:53;;;;;;;15.23;10.32;;;;;;;-3.52;71.84;101511.55;1786445;80;20974;-80
2022/01/24 03:18:20;;;;;;;15.85;9.60;;;;;;;-3.56;71.89;101504.66;1786810;79;20993;-79
2022/01/24 03:20:47;;;;;;;14.40;8.48;;;;;;;-3.57;71.82;101499.11;1786418;80;20868;-78
2022/01/24 03:23:18;;;;;;;17.25;10.48;;;;;;;-3.59;71.86;101502.07;1786561;80;20970;-78
2022/01/24 03:25:45;;;;;;;15.48;10.13;;;;;;;-3.60;71.81;101517.00;1786483;80;21125;-79
2022/01/24 03:28:13;;;;;;;18.98;9.43;;;;;;;-3.59;71.80;101511.05;1786387;79;20875;-80
2022/01/24 03:30:40;;;;;;;15.23;9.48;;;;;;;-3.61;71.92;101507.17;1786365;80;20927;-79
2022/01/24 03:33:08;;;;;;;15.43;10.40;;;;;;;-3.61;71.69;101514.01;1786461;80;20864;-79
2022/01/24 03:35:35;;;;;;;18.27;9.93;;;;;;;-3.65;71.71;101517.37;1786612;80;20900;-79
2022/01/24 03:38:03;;;;;;;17.32;9.35;;;;;;;-3.64;71.64;101525.52;1787382;79;21117;-79
2022/01/24 03:40:31;;;;;;;13.85;8.03;;;;;;;-3.62;71.57;101524.69;1787724;80;20832;-77
2022/01/24 03:42:58;;;;;;;13.00;8.83;;;;;;;-3.62;71.23;101511.87;1786628;80;20884;-77
2022/01/24 03:45:39;;;;;;;15.00;9.63;;;;;;;-3.63;71.23;101529.78;1786336;80;20923;-78
2022/01/24 03:48:26;;;;;;;12.47;9.35;;;;;;;-3.64;70.99;101523.80;1783999;80;20916;-78
2022/01/24 03:50:25;;;;;;;16.80;10.78;;;;;;;-3.65;70.86;101530.19;1779295;79;21230;-79
2022/01/24 03:52:52;;;;;;;17.23;9.30;;;;;;;-3.61;70.82;101535.80;1786460;80;20859;-76
2022/01/24 03:55:18;;;;;;;14.93;9.93;;;;;;;-3.59;70.72;101527.70;1786501;80;21361;-78
2022/01/24 03:57:45;;;;;;;14.53;9.58;;;;;;;-3.60;70.78;101547.36;1786309;80;20903;-78
2022/01/24 04:00:13;;;;;;;14.25;8.45;;;;;;;-3.60;70.57;101532.37;1786659;80;20900;-78
2022/01/24 04:02:40;;;;;;;15.75;9.60;;;;;;;-3.60;70.53;101559.29;1786618;80;21112;-78
2022/01/24 04:05:07;;;;;;;12.88;8.55;;;;;;;-3.61;70.23;101555.02;1784912;80;20919;-78
2022/01/24 04:07:34;;;;;;;16.17;9.03;;;;;;;-3.62;70.38;101550.32;1780705;80;20958;-79
2022/01/24 04:10:06;;;;;;;17.12;9.65;;;;;;;-3.66;70.42;101559.23;1780995;79;21477;-78
2022/01/24 04:12:31;;;;;;;17.35;9.48;;;;;;;-3.65;70.56;101567.34;1780599;80;20959;-80
2022/01/24 04:22:34;;;;;;;15.43;8.43;;;;;;;-3.69;70.64;101568.14;1666222;84;20979;-79
2022/01/24 04:25:00;;;;;;;15.50;8.88;;;;;;;-3.71;70.51;101578.79;1695133;84;21178;-79
2022/01/24 04:27:28;;;;;;;14.00;8.70;;;;;;;-3.74;70.78;101578.33;1695763;84;21085;-79
2022/01/24 04:29:55;;;;;;;17.95;9.35;;;;;;;-3.73;70.59;101573.66;1695942;84;20946;-79
2022/01/24 04:32:22;;;;;;;11.28;8.48;;;;;;;-3.75;70.66;101580.04;1695676;84;20997;-79
2022/01/24 04:34:49;;;;;;;14.35;8.13;;;;;;;-3.75;70.55;101577.91;1695757;83;21018;-79
2022/01/24 04:37:17;;;;;;;14.85;8.53;;;;;;;-3.78;70.51;101572.32;1695736;84;21151;-81
2022/01/24 04:39:44;;;;;;;13.25;7.75;;;;;;;-3.77;70.54;101585.56;1695861;83;20887;-79
2022/01/24 04:42:17;;;;;;;12.60;9.68;;;;;;;-3.78;70.47;101583.85;1696176;83;20943;-79
2022/01/24 04:47:28;;;;;;;15.88;10.25;;;;;;;-3.80;70.67;101582.97;1696055;83;20955;-82
2022/01/24 04:52:57;;;;;;;14.10;9.20;;;;;;;-3.78;70.95;101576.56;1711587;83;20925;-79
2022/01/24 04:55:17;;;;;;;13.50;7.92;;;;;;;-3.77;70.87;101588.12;1694314;84;20990;-79
2022/01/24 04:57:46;;;;;;;13.35;8.50;;;;;;;-3.78;71.04;101590.66;1695720;84;20962;-82
2022/01/24 05:00:13;;;;;;;18.07;9.55;;;;;;;-3.81;71.08;101589.34;1695946;84;20907;-81
2022/01/24 05:02:41;;;;;;;12.15;9.10;;;;;;;-3.84;71.33;101594.44;1695773;84;21108;-77
2022/01/24 05:05:12;;;;;;;15.53;8.48;;;;;;;-3.87;71.38;101595.22;1695883;83;20962;-81
2022/01/24 05:07:38;;;;;;;12.53;8.73;;;;;;;-3.86;71.46;101593.12;1695972;84;20979;-81
2022/01/24 05:10:20;;;;;;;14.58;8.45;;;;;;;-3.85;71.42;101598.67;1696317;83;20935;-80
2022/01/24 05:23:41;;;;;;;12.73;8.25;;;;;;;-3.85;71.85;101601.66;1754284;81;20959;-81
2022/01/24 05:26:03;;;;;;;;;;;;;;;-3.86;72.05;101606.36;1754815;81;21030;-82
2022/01/24 05:28:31;;;;;;;14.20;9.60;;;;;;;-3.88;72.19;101597.36;1753650;81;21100;-81
2022/01/24 05:30:58;;;;;;;13.00;8.88;;;;;;;-3.92;72.39;101596.01;1753238;80;20956;-80
2022/01/24 05:33:26;;;;;;;12.10;8.75;;;;;;;-3.96;72.65;101604.94;1753296;81;20963;-79
2022/01/24 05:35:52;;;;;;;11.70;8.53;;;;;;;-3.96;72.73;101610.06;1753080;82;20905;-80
2022/01/24 05:38:22;;;;;;;15.08;8.88;;;;;;;-3.93;72.73;101611.80;1753110;80;20928;-85
2022/01/24 05:40:48;;;;;;;18.77;9.68;;;;;;;-3.93;72.84;101613.09;1753965;81;21140;-87
2022/01/24 05:43:15;;;;;;;18.85;9.48;;;;;;;-3.98;73.00;101621.98;1753821;81;20872;-86
2022/01/24 05:45:43;;;;;;;13.78;7.60;;;;;;;-4.00;73.07;101621.52;1753645;81;20932;-87
2022/01/24 05:48:10;;;;;;;14.70;8.45;;;;;;;-4.02;73.06;101627.03;1753533;80;20955;-89
2022/01/24 05:50:37;;;;;;;14.58;9.63;;;;;;;-4.02;73.16;101630.88;1754072;82;21007;-87
2022/01/24 05:53:07;;;;;;;15.15;8.38;;;;;;;-4.02;73.23;101636.00;1753997;81;21800;-88
2022/01/24 05:55:39;;;;;;;16.07;9.38;;;;;;;-4.01;73.26;101627.47;1754212;80;20889;-86
2022/01/24 05:58:05;;;;;;;13.68;8.75;;;;;;;-4.03;73.16;101629.14;1753852;81;20924;-86
2022/01/24 06:00:33;;;;;;;13.30;9.20;;;;;;;-4.02;73.15;101629.59;1753182;80;20936;-87
2022/01/24 06:03:00;;;;;;;13.28;9.68;;;;;;;-4.04;73.11;101634.69;1752822;81;20948;-85
2022/01/24 06:05:27;;;;;;;13.98;9.68;;;;;;;-4.01;73.18;101635.15;1753701;81;21167;-85
2022/01/24 06:07:55;;;;;;;12.78;9.25;;;;;;;-3.93;73.16;101644.26;1753861;80;21825;-84
2022/01/24 06:10:22;;;;;;;15.13;9.40;;;;;;;-3.92;72.90;101639.13;1752831;80;20888;-86
2022/01/24 06:12:48;;;;;;;12.88;8.73;;;;;;;-3.89;72.84;101636.64;1752731;80;20948;-85
2022/01/24 06:15:16;;;;;;;13.98;9.58;;;;;;;-3.88;72.85;101638.78;1753150;81;21011;-86
2022/01/24 06:17:43;;;;;;;14.50;9.33;;;;;;;-3.88;72.96;101648.59;1752687;80;21175;-86
2022/01/24 06:20:10;;;;;;;12.73;8.78;;;;;;;-3.85;72.97;101635.83;1758999;80;20979;-87
2022/01/24 06:22:38;;;;;;;19.00;9.80;;;;;;;-3.82;72.89;101652.55;1758798;81;20987;-85
2022/01/24 06:25:06;;;;;;;16.70;10.23;;;;;;;-3.82;72.86;101654.25;1758848;81;20868;-86
2022/01/24 06:27:33;;;;;;;11.85;8.35;;;;;;;-3.78;72.91;101649.59;1756727;81;20975;-85
2022/01/24 06:30:00;;;;;;;18.65;9.65;;;;;;;-3.75;72.62;101652.22;1757537;80;21127;-84
2022/01/24 06:32:28;;;;;;;12.88;9.05;;;;;;;-3.74;72.71;101653.94;1757911;80;21030;-86
2022/01/24 06:34:55;;;;;;;12.18;9.15;;;;;;;-3.72;72.69;101647.56;1757904;80;20924;-85
2022/01/24 06:37:22;;;;;;;11.88;7.72;;;;;;;-3.71;72.61;101650.16;1758998;81;20935;-84
2022/01/24 06:39:49;;;;;;;13.30;8.05;;;;;;;-3.69;72.38;101656.17;1759225;81;21441;-85
2022/01/24 06:42:22;;;;;;;15.38;9.75;;;;;;;-3.66;72.10;101655.34;1759360;81;21165;-86
2022/01/24 06:44:45;;;;;;;16.05;9.08;;;;;;;-3.69;71.87;101660.41;1760595;81;20884;-85
2022/01/24 06:47:13;;;;;;;16.23;8.48;;;;;;;-3.70;71.97;101656.14;1759784;81;20924;-84
2022/01/24 06:49:40;;;;;;;16.77;9.88;;;;;;;-3.71;72.02;101659.12;1758605;80;21482;-85
2022/01/24 06:52:10;;;;;;;15.18;10.38;;;;;;;-3.68;72.07;101657.02;1758277;80;21069;-85
2022/01/24 06:54:37;;;;;;;15.60;8.58;;;;;;;-3.63;72.07;101660.51;1758020;81;21337;-85
2022/01/24 06:57:04;;;;;;;11.78;8.15;;;;;;;-3.57;71.81;101656.77;1758090;81;20868;-84
2022/01/24 06:59:32;;;;;;;15.63;9.03;;;;;;;-3.52;71.73;101655.55;1758262;80;20948;-84
2022/01/24 07:01:58;;;;;;;13.35;7.83;;;;;;;-3.50;71.53;101654.73;1758139;81;20972;-86
2022/01/24 07:04:26;;;;;;;16.23;8.90;;;;;;;-3.51;71.46;101653.41;1757964;81;21015;-86
2022/01/24 07:06:53;;;;;;;13.78;9.33;;;;;;;-3.50;71.37;101658.57;1758084;81;21363;-84
2022/01/24 07:09:20;;;;;;;16.17;8.65;;;;;;;-3.51;71.30;101657.25;1757875;80;21011;-82
2022/01/24 07:11:49;;;;;;;17.02;9.43;;;;;;;-3.53;71.36;101655.98;1757770;81;20999;-83
2022/01/24 07:14:16;;;;;;;13.30;8.60;;;;;;;-3.53;71.39;101661.10;1741136;81;21385;-83
2022/01/24 07:19:32;;;;;;;11.20;7.78;;;;;;;-3.48;71.69;101663.73;1758402;80;21153;-83
2022/01/24 07:22:01;;;;;;;13.43;8.25;;;;;;;-3.45;71.81;101666.33;1758168;81;20930;-83
2022/01/24 07:24:28;;;;;;;14.33;9.43;;;;;;;-3.45;71.91;101665.90;1758480;81;21009;-85
2022/01/24 07:26:55;;;;;;;14.95;10.05;;;;;;;-3.43;72.21;101666.78;1758397;80;21403;-86
2022/01/24 07:29:22;;;;;;;13.40;9.48;;;;;;;-3.41;72.52;101664.25;1758192;81;20877;-84
2022/01/24 07:31:49;;;;;;;13.70;9.90;;;;;;;-3.42;72.75;101674.08;1758308;81;21123;-86
2022/01/24 07:34:19;;;;;;;15.58;9.98;;;;;;;-3.44;72.91;101670.20;1758182;81;20915;-85
2022/01/24 07:36:45;;;;;;;13.72;8.50;;;;;;;-3.44;73.21;101668.06;1758064;80;20885;-85
2022/01/24 07:39:13;;;;;;;14.43;9.28;;;;;;;-3.41;73.38;101664.25;1757895;81;20892;-84
2022/01/24 07:41:45;;;;;;;13.43;8.43;;;;;;;-3.43;73.38;101669.34;1758125;81;20963;-84
2022/01/24 07:44:18;;;;;;;13.38;8.73;;;;;;;-3.46;73.71;101674.88;1742089;81;21978;-86
2022/01/24 07:46:44;;;;;;;14.05;8.73;;;;;;;-3.46;73.80;101668.46;1757864;80;20889;-77
2022/01/24 07:49:12;;;;;;;15.30;10.65;;;;;;;-3.45;74.09;101672.31;1757744;80;20900;-78
2022/01/24 07:51:40;;;;;;;14.07;9.25;;;;;;;-3.40;74.22;101674.55;1757825;81;21517;-80
2022/01/24 07:54:08;;;;;;;15.35;9.20;;;;;;;-3.33;74.37;101669.08;1758155;81;21022;-78
2022/01/24 07:56:36;;;;;;;17.17;10.70;;;;;;;-3.29;74.26;101677.27;1758174;80;21373;-77
2022/01/24 07:59:02;;;;;;;14.20;9.65;;;;;;;-3.24;74.16;101680.75;1758319;81;20865;-78
2022/01/24 08:01:30;;;;;;;14.25;9.83;;;;;;;-3.18;74.12;101678.67;1757909;80;20991;-77
2022/01/24 08:03:57;;;;;;;14.43;10.23;;;;;;;-3.13;73.77;101687.31;1757806;81;20952;-78
2022/01/24 08:06:24;;;;;;;12.55;8.43;;;;;;;-3.09;73.63;101677.94;1757438;81;20885;-79
2022/01/24 08:08:52;;;;;;;13.62;8.10;;;;;;;-3.04;73.43;101683.58;1757826;81;21124;-79
2022/01/24 08:11:20;;;;;;;15.63;9.58;;;;;;;-2.99;73.21;101688.34;1757706;81;20960;-78
2022/01/24 08:13:46;;;;;;;13.40;8.90;;;;;;;-2.94;73.23;101687.11;1758018;80;20852;-79
2022/01/24 08:16:13;;;;;;;11.78;8.50;;;;;;;-2.89;73.15;101687.17;1757893;81;21327;-77
2022/01/24 08:18:40;;;;;;;11.80;8.68;;;;;;;-2.85;72.98;101698.77;1757570;80;20928;-78
2022/01/24 08:21:07;;;;;;;14.83;10.00;;;;;;;-2.84;72.71;101699.23;1744713;81;21724;-79
2022/01/24 08:23:34;;;;;;;14.58;9.40;;;;;;;-2.83;72.83;101691.95;1744639;81;20858;-79
2022/01/24 08:26:00;;;;;;;13.03;9.18;;;;;;;-2.79;72.75;101690.30;1744438;81;20901;-77
2022/01/24 08:28:27;;;;;;;17.07;9.50;;;;;;;-2.75;72.81;101681.80;1734258;82;21043;-79
2022/01/24 08:30:54;;;;;;;15.45;9.75;;;;;;;-2.73;72.64;101687.39;1744740;81;20928;-79
2022/01/24 08:33:21;;;;;;;13.85;9.13;;;;;;;-2.67;72.63;101679.31;1744979;80;22189;-80
2022/01/24 08:35:48;;;;;;;13.48;9.48;;;;;;;-2.63;72.04;101693.48;1745252;82;20925;-86
2022/01/24 08:38:15;;;;;;;15.83;9.68;;;;;;;-2.63;71.94;101691.34;1744894;80;20929;-78
2022/01/24 08:40:45;;;;;;;13.20;8.48;;;;;;;-2.61;72.04;101690.94;1744522;81;20885;-80
2022/01/24 08:43:10;;;;;;;13.10;8.83;;;;;;;-2.54;72.13;101690.16;1744562;80;21421;-78
2022/01/24 08:45:50;;;;;;;12.98;9.28;;;;;;;-2.55;71.94;101695.72;1744537;81;21117;-77
2022/01/24 08:48:20;;;;;;;12.03;8.08;;;;;;;-2.57;72.07;101677.30;1744554;81;20980;-78
2022/01/24 08:50:49;;;;;;;12.60;8.33;;;;;;;-2.60;72.27;101684.95;1744300;81;20900;-77
2022/01/24 08:53:16;;;;;;;16.80;10.45;;;;;;;-2.59;72.43;101687.55;1744659;80;20885;-79
2022/01/24 08:55:44;;;;;;;15.48;9.28;;;;;;;-2.57;72.66;101688.42;1744415;82;20873;-78
2022/01/24 08:58:16;;;;;;;11.97;8.75;;;;;;;-2.53;72.63;101686.77;1744774;81;21862;-79
2022/01/24 09:00:44;;;;;;;12.28;8.33;;;;;;;-2.48;72.67;101686.38;1743988;81;21058;-80
2022/01/24 09:03:12;;;;;;;13.10;8.70;;;;;;;-2.37;72.57;101680.08;1744522;81;20890;-80
2022/01/24 09:05:40;;;;;;;11.18;7.92;;;;;;;-2.33;72.57;101684.41;1744450;81;21472;-80
2022/01/24 09:08:07;;;;;;;12.63;8.65;;;;;;;-2.24;72.69;101677.22;1744620;82;20929;-80
2022/01/24 09:10:35;;;;;;;11.30;8.08;;;;;;;-2.16;72.70;101676.84;1745607;82;21113;-80
2022/01/24 09:13:02;;;;;;;12.23;7.17;;;;;;;-2.11;72.25;101670.92;1744771;80;20964;-79
2022/01/24 09:15:28;;;;;;;16.12;8.75;;;;;;;-2.15;72.30;101677.30;1744644;81;20869;-79
2022/01/24 09:17:55;;;;;;;11.10;7.45;;;;;;;-2.15;72.42;101664.45;1744831;81;20873;-79
2022/01/24 09:20:22;;;;;;;12.37;8.18;;;;;;;-2.14;72.50;101674.73;1752665;80;20889;-80
2022/01/24 09:22:50;;;;;;;9.33;6.70;;;;;;;-2.07;72.34;101668.37;1757937;81;21997;-78
2022/01/24 09:25:20;;;;;;;10.65;8.08;;;;;;;-2.06;72.18;101666.25;1757684;81;20959;-77
2022/01/24 09:27:46;;;;;;;9.90;7.17;;;;;;;-2.04;72.29;101665.41;1758132;81;20925;-78
2022/01/24 09:30:16;;;;;;;11.20;7.78;;;;;;;-1.98;72.12;101665.47;1758024;81;20888;-80
2022/01/24 09:32:43;;;;;;;13.10;7.78;;;;;;;-2.00;71.65;101672.70;1758274;80;20888;-79
2022/01/24 09:35:11;;;;;;;11.18;7.55;;;;;;;-2.03;71.76;101671.41;1758022;81;21098;-79
2022/01/24 09:37:42;;;;;;;10.32;7.70;;;;;;;-2.01;71.77;101674.42;1757844;81;21498;-79
2022/01/24 09:40:13;;;;;;;13.15;8.98;;;;;;;-2.02;71.52;101670.55;1755969;81;20885;-79
2022/01/24 09:42:41;;;;;;;10.18;7.65;;;;;;;-2.05;71.46;101672.67;1758193;81;20955;-79
2022/01/24 09:45:09;;;;;;;13.83;9.25;;;;;;;-2.05;71.70;101676.95;1757782;81;21038;-78
2022/01/24 09:47:36;;;;;;;11.03;7.83;;;;;;;-2.02;71.77;101671.43;1758176;80;21104;-79
2022/01/24 09:50:10;;;;;;;13.22;7.35;;;;;;;-1.96;71.50;101667.60;1758201;81;20870;-78
2022/01/24 09:52:34;;;;;;;15.30;8.95;;;;;;;-1.96;71.21;101674.45;1756974;81;20845;-79
2022/01/24 09:55:01;;;;;;;11.08;7.90;;;;;;;-2.02;71.13;101670.55;1758318;81;21449;-79
2022/01/24 09:57:28;;;;;;;13.75;8.95;;;;;;;-2.10;71.41;101671.77;1757890;81;20995;-78
2022/01/24 09:59:56;;;;;;;12.47;8.48;;;;;;;-2.11;71.50;101668.78;1757927;81;21549;-78
2022/01/24 10:02:27;;;;;;;14.73;9.08;;;;;;;-2.10;71.36;101666.64;1758134;80;20849;-79
2022/01/24 10:05:12;;;;;;;14.27;9.87;;;;;;;-2.09;71.42;101657.66;1758482;81;20989;-81
2022/01/24 10:07:40;;;;;;;13.93;9.23;;;;;;;-2.04;71.64;101659.42;1757976;81;21418;-80
2022/01/24 10:10:08;;;;;;;12.78;9.53;;;;;;;-1.96;71.90;101655.19;1757914;81;20979;-82
2022/01/24 10:16:24;;;;;;;13.93;9.45;;;;;;;-1.85;71.74;101662.55;1758153;81;21158;-83
2022/01/24 10:17:56;;;;;;;13.65;9.55;;;;;;;-1.75;71.30;101660.94;1759029;80;20881;-83
2022/01/24 10:20:30;;;;;;;15.25;9.63;;;;;;;-1.83;71.27;101657.00;1752574;80;20952;-78
2022/01/24 10:23:05;;;;;;;13.45;9.58;;;;;;;-1.84;71.51;101659.16;1743954;81;26336;-79
2022/01/24 10:25:35;;;;;;;12.80;9.50;;;;;;;-1.82;71.50;101648.45;1742719;81;21161;-76
2022/01/24 10:28:04;;;;;;;13.65;9.08;;;;;;;-1.84;71.51;101655.30;1744243;81;20936;-87
2022/01/24 10:30:32;;;;;;;13.68;8.50;;;;;;;-1.84;71.33;101653.16;1744655;82;20921;-78
2022/01/24 10:33:02;;;;;;;15.40;10.00;;;;;;;-1.87;71.25;101647.54;1744793;81;20900;-79
2022/01/24 10:35:42;;;;;;;13.00;8.88;;;;;;;-1.89;71.14;101649.23;1745614;80;20936;-85
2022/01/24 10:38:21;;;;;;;15.55;10.15;;;;;;;-1.92;71.21;101655.65;1745147;81;21129;-82
2022/01/24 10:40:55;;;;;;;11.00;8.20;;;;;;;-1.97;70.94;101654.33;1744766;81;20881;-81
2022/01/24 10:43:26;;;;;;;17.27;9.43;;;;;;;-1.98;70.93;101654.30;1745092;81;20964;-81
2022/01/24 10:45:56;;;;;;;14.63;9.68;;;;;;;-1.99;70.47;101644.45;1744551;81;20952;-78
2022/01/24 10:48:32;;;;;;;12.90;8.43;;;;;;;-2.02;70.04;101651.27;1744781;81;20932;-81
2022/01/24 10:51:09;;;;;;;13.30;8.65;;;;;;;-2.05;69.91;101651.25;1744514;81;21134;-84
2022/01/24 10:53:41;;;;;;;13.50;9.40;;;;;;;-2.03;69.89;101650.41;1744612;81;21035;-80
2022/01/24 10:56:40;;;;;;;13.43;8.83;;;;;;;-2.03;69.54;101656.84;1734082;82;20991;-78
2022/01/24 10:59:21;;;;;;;12.25;8.80;;;;;;;-2.00;69.46;101649.58;1744775;81;20956;-80
2022/01/24 11:01:59;;;;;;;15.60;8.33;;;;;;;-2.03;69.22;101652.12;1744526;81;20976;-84
2022/01/24 11:04:26;;;;;;;12.10;7.75;;;;;;;-2.06;69.04;101643.98;1744837;81;21558;-81
2022/01/24 11:06:59;;;;;;;11.40;8.33;;;;;;;-2.08;69.05;101648.23;1744474;81;20924;-74
2022/01/24 11:09:35;;;;;;;12.88;8.55;;;;;;;-2.09;69.10;101647.78;1734904;81;20921;-75
2022/01/24 11:12:11;;;;;;;15.25;8.73;;;;;;;-2.07;69.24;101646.52;1744570;81;20905;-78
2022/01/24 11:14:40;;;;;;;16.65;9.28;;;;;;;-2.05;69.17;101631.98;1744520;80;20920;-78
2022/01/24 11:17:10;;;;;;;16.57;7.85;;;;;;;-2.07;69.25;101647.80;1744500;81;21961;-77
2022/01/24 11:22:06;;;;;;;17.75;10.80;;;;;;;-2.09;69.49;101639.67;1757914;81;21521;-77
2022/01/24 11:24:43;;;;;;;15.15;10.15;;;;;;;-2.10;69.20;101643.08;1757937;81;20944;-78
2022/01/24 11:27:07;;;;;;;12.07;8.18;;;;;;;-2.17;69.43;101634.03;1741570;81;21373;-78
2022/01/24 11:29:35;;;;;;;15.83;9.78;;;;;;;-2.21;69.56;101638.27;1757919;81;21141;-79
2022/01/24 11:32:23;;;;;;;11.95;8.38;;;;;;;-2.22;69.52;101638.24;1758072;80;20971;-79
2022/01/24 11:34:53;;;;;;;13.13;8.33;;;;;;;-2.23;69.74;101634.82;1758665;80;20940;-80
2022/01/24 11:37:42;;;;;;;15.83;9.80;;;;;;;-2.22;69.82;101640.41;1758178;80;20932;-80
2022/01/24 11:40:17;;;;;;;12.55;8.48;;;;;;;-2.22;69.85;101639.12;1758445;81;20979;-81
2022/01/24 11:42:46;;;;;;;14.93;9.48;;;;;;;-2.20;69.72;101643.86;1758374;81;21097;-81
2022/01/24 11:45:18;;;;;;;14.75;8.70;;;;;;;-2.21;69.67;101640.84;1757960;81;21414;-82
2022/01/24 11:47:46;;;;;;;12.37;8.18;;;;;;;-2.23;69.63;101629.69;1758352;80;20904;-79
2022/01/24 11:50:31;;;;;;;13.83;9.95;;;;;;;-2.24;69.48;101630.98;1757788;80;20904;-80
2022/01/24 11:52:59;;;;;;;11.83;8.08;;;;;;;-2.25;69.47;101637.80;1758734;81;21525;-78
2022/01/24 11:55:35;;;;;;;11.10;7.53;;;;;;;-2.22;69.49;101644.27;1758237;81;21474;-79
2022/01/24 11:58:06;;;;;;;12.55;8.15;;;;;;;-2.21;69.16;101639.55;1757991;80;20928;-79
2022/01/24 12:00:40;;;;;;;14.70;7.92;;;;;;;-2.20;69.07;101645.15;1757682;80;20881;-80
2022/01/24 12:03:23;;;;;;;12.07;7.90;;;;;;;-2.15;68.89;101639.61;1758022;80;20923;-81
2022/01/24 12:05:53;;;;;;;11.15;7.25;;;;;;;-2.10;68.29;101640.94;1758205;81;20999;-83
2022/01/24 12:08:46;;;;;;;13.00;8.53;;;;;;;-2.11;68.06;101635.38;1758104;81;21922;-77
2022/01/24 12:11:18;;;;;;;13.18;8.08;;;;;;;-2.09;68.19;101645.21;1756439;81;20931;-73
2022/01/24 12:14:02;;;;;;;12.07;7.90;;;;;;;-2.04;67.95;101634.58;1758028;81;20923;-76
2022/01/24 12:16:39;;;;;;;12.88;7.17;;;;;;;-2.01;67.77;101646.58;1757771;81;21521;-75
2022/01/24 12:19:05;;;;;;;12.45;7.47;;;;;;;-2.01;67.45;101646.15;1756462;80;20888;-76
2022/01/24 12:21:35;;;;;;;10.80;8.23;;;;;;;-2.05;66.84;101646.11;1748456;80;22011;-74
2022/01/24 12:24:09;;;;;;;11.48;7.60;;;;;;;-2.09;66.86;101647.39;1744506;81;20925;-75
2022/01/24 12:26:44;;;;;;;10.80;7.78;;;;;;;-2.09;66.67;101649.95;1744565;80;22033;-74
2022/01/24 12:29:22;;;;;;;12.23;7.42;;;;;;;-2.05;66.82;101656.39;1744525;81;20901;-75
2022/01/24 12:31:52;;;;;;;11.33;7.08;;;;;;;-2.01;66.55;101658.14;1744463;81;21370;-73
2022/01/24 12:34:34;;;;;;;10.25;7.53;;;;;;;-2.00;66.19;101653.43;1744472;81;21140;-75
2022/01/24 12:37:23;;;;;;;10.00;6.83;;;;;;;-2.02;66.04;101660.27;1734246;82;20981;-75
2022/01/24 12:39:57;;;;;;;11.20;7.83;;;;;;;-2.03;66.16;101654.27;1744709;81;20991;-75
2022/01/24 12:42:52;;;;;;;13.27;8.30;;;;;;;-2.04;66.41;101658.13;1740175;80;21453;-75
2022/01/24 12:48:17;;;;;;;15.72;8.85;;;;;;;-2.06;66.44;101652.97;1745208;82;21163;-75
2022/01/24 12:50:51;;;;;;;15.18;9.38;;;;;;;-2.10;67.02;101657.21;1744874;81;21300;-74
2022/01/24 12:53:19;;;;;;;11.85;7.45;;;;;;;-2.12;67.24;101642.63;1745197;81;20980;-74
2022/01/24 12:55:46;;;;;;;13.68;8.00;;;;;;;-2.09;67.29;101643.53;1745026;81;20932;-75
2022/01/24 12:58:13;;;;;;;14.33;9.05;;;;;;;-2.06;67.24;101650.83;1691877;81;20912;-76
2022/01/24 13:00:45;;;;;;;13.48;8.35;;;;;;;-2.04;67.22;101646.56;1744986;81;21521;-75
2022/01/24 13:03:08;;;;;;;13.50;8.05;;;;;;;-2.06;67.10;101644.41;1744831;81;20952;-75
2022/01/24 13:05:38;;;;;;;10.55;7.33;;;;;;;-2.10;66.36;101642.22;1745007;81;21287;-74
2022/01/24 13:08:06;;;;;;;12.93;7.87;;;;;;;-2.13;65.87;101641.78;1744828;81;20909;-75
2022/01/24 13:10:33;;;;;;;12.50;8.23;;;;;;;-2.15;65.96;101645.19;1744644;81;21378;-74
2022/01/24 13:13:07;;;;;;;11.97;7.08;;;;;;;-2.20;65.93;101638.72;1744635;80;21130;-75
2022/01/24 13:21:17;;;;;;;11.10;7.25;;;;;;;-2.31;65.88;101651.47;1744419;80;20901;-74